Time;durP1;ratioP1;P1;durP2;ratioP2;P2;SDS_P1;SDS_P2;PMS_P1;PMS_P2;Temp;Humidity;BMP_temperature;BMP_pressure;BME280_temperature;BME280_humidity;BME280_pressure;Samples;Min_cycle;Max_cycle;Signal;HPM_P1;HPM_P2
2021/08/20 00:01:17;;;;;;;18.75;6.38;;;;;;;;;;5052993;28;20072;-76
2021/08/20 00:03:42;;;;;;;14.80;6.85;;;;;;;;;;5053007;28;20021;-76
2021/08/20 00:06:07;;;;;;;14.35;6.28;;;;;;;;;;5053096;28;20025;-76
2021/08/20 00:08:32;;;;;;;13.80;6.70;;;;;;;;;;5052941;28;20223;-76
2021/08/20 00:11:02;;;;;;;13.63;7.03;;;;;;;;;;5053205;28;20083;-75
2021/08/20 00:13:28;;;;;;;13.05;6.47;;;;;;;;;;5053259;28;20025;-76
2021/08/20 00:15:53;;;;;;;14.80;7.15;;;;;;;;;;5053197;28;20044;-75
2021/08/20 00:18:19;;;;;;;12.50;6.72;;;;;;;;;;5053184;28;20104;-75
2021/08/20 00:20:44;;;;;;;15.10;7.35;;;;;;;;;;5053137;28;20025;-75
2021/08/20 00:23:09;;;;;;;13.93;7.60;;;;;;;;;;5053078;28;20430;-75
2021/08/20 00:25:34;;;;;;;12.68;6.90;;;;;;;;;;5053083;28;20017;-75
2021/08/20 00:28:00;;;;;;;12.80;6.90;;;;;;;;;;5052299;28;20033;-75
2021/08/20 00:30:25;;;;;;;13.50;7.50;;;;;;;;;;5052868;28;20033;-75
2021/08/20 00:32:50;;;;;;;12.63;6.78;;;;;;;;;;5053302;28;20450;-75
2021/08/20 00:35:16;;;;;;;11.95;6.78;;;;;;;;;;5052850;28;20045;-75
2021/08/20 00:37:41;;;;;;;12.15;6.38;;;;;;;;;;5052998;28;20547;-75
2021/08/20 00:40:07;;;;;;;10.75;6.00;;;;;;;;;;5052746;28;20022;-75
2021/08/20 00:42:32;;;;;;;14.80;7.05;;;;;;;;;;5052971;28;20132;-74
2021/08/20 00:44:58;;;;;;;14.90;6.85;;;;;;;;;;5052821;28;20037;-75
2021/08/20 00:47:23;;;;;;;12.98;6.40;;;;;;;;;;5052923;28;20377;-76
2021/08/20 00:49:50;;;;;;;13.00;6.82;;;;;;;;;;5052876;28;20052;-75
2021/08/20 00:52:15;;;;;;;13.15;7.03;;;;;;;;;;5052838;28;20035;-75
2021/08/20 00:54:41;;;;;;;11.32;6.57;;;;;;;;;;5052716;28;20029;-75
2021/08/20 00:57:06;;;;;;;13.60;6.00;;;;;;;;;;5052550;28;20424;-75
2021/08/20 00:59:32;;;;;;;12.25;6.50;;;;;;;;;;5052784;28;20033;-75
2021/08/20 01:01:57;;;;;;;13.80;7.07;;;;;;;;;;5052632;28;20017;-75
2021/08/20 01:04:23;;;;;;;12.95;6.88;;;;;;;;;;5052755;28;20384;-76
2021/08/20 01:06:48;;;;;;;11.80;6.55;;;;;;;;;;5053908;28;20063;-74
2021/08/20 01:09:14;;;;;;;13.40;6.60;;;;;;;;;;5056467;28;20029;-75
2021/08/20 01:11:39;;;;;;;13.70;7.20;;;;;;;;;;5056260;28;20409;-75
2021/08/20 01:14:07;;;;;;;15.27;7.68;;;;;;;;;;5056248;28;20059;-75
2021/08/20 01:16:33;;;;;;;15.48;7.40;;;;;;;;;;5038336;28;20029;-75
2021/08/20 01:18:59;;;;;;;16.70;6.88;;;;;;;;;;5056150;28;20068;-75
2021/08/20 01:21:24;;;;;;;19.98;7.90;;;;;;;;;;5056109;28;20056;-75
2021/08/20 01:23:50;;;;;;;21.15;8.10;;;;;;;;;;5056023;28;20028;-75
2021/08/20 01:26:15;;;;;;;23.58;8.48;;;;;;;;;;5055791;28;20457;-75
2021/08/20 01:28:40;;;;;;;23.55;8.20;;;;;;;;;;5056026;28;20029;-75
2021/08/20 01:31:07;;;;;;;26.13;9.68;;;;;;;;;;5055696;28;20052;-75
2021/08/20 01:33:32;;;;;;;25.40;9.13;;;;;;;;;;5056043;28;20039;-75
2021/08/20 01:35:58;;;;;;;28.85;8.98;;;;;;;;;;5055758;28;20393;-75
2021/08/20 01:38:23;;;;;;;26.00;8.75;;;;;;;;;;5055919;28;20017;-74
2021/08/20 01:40:49;;;;;;;27.60;8.43;;;;;;;;;;5055822;28;20488;-75
2021/08/20 01:43:14;;;;;;;27.95;9.38;;;;;;;;;;5055771;28;20033;-74
2021/08/20 01:45:39;;;;;;;26.60;9.48;;;;;;;;;;5055699;28;20028;-75
2021/08/20 01:48:05;;;;;;;27.48;9.40;;;;;;;;;;5055564;28;20033;-75
2021/08/20 01:50:31;;;;;;;26.95;9.40;;;;;;;;;;5037698;28;20037;-76
2021/08/20 01:52:56;;;;;;;23.88;8.93;;;;;;;;;;5055585;28;20057;-76
2021/08/20 01:55:22;;;;;;;29.98;9.65;;;;;;;;;;5055541;28;20437;-74
2021/08/20 01:57:47;;;;;;;33.35;8.93;;;;;;;;;;5055402;28;20029;-75
2021/08/20 02:00:12;;;;;;;31.23;9.45;;;;;;;;;;5055278;28;20060;-75
2021/08/20 02:02:38;;;;;;;31.38;9.30;;;;;;;;;;5054880;28;20033;-75
2021/08/20 02:05:04;;;;;;;34.25;9.73;;;;;;;;;;5055339;28;20044;-75
2021/08/20 02:07:34;;;;;;;30.90;10.20;;;;;;;;;;5055371;28;20020;-75
2021/08/20 02:09:59;;;;;;;39.70;10.38;;;;;;;;;;5055220;28;20026;-75
2021/08/20 02:12:25;;;;;;;37.85;10.55;;;;;;;;;;5055127;28;20040;-75
2021/08/20 02:14:50;;;;;;;29.70;9.23;;;;;;;;;;5055062;28;20032;-75
2021/08/20 02:17:15;;;;;;;34.17;10.32;;;;;;;;;;5055078;28;20025;-75
2021/08/20 02:19:40;;;;;;;38.60;12.80;;;;;;;;;;5054337;28;20055;-75
2021/08/20 02:22:06;;;;;;;34.13;10.80;;;;;;;;;;5055097;28;20171;-75
2021/08/20 02:24:31;;;;;;;30.80;10.70;;;;;;;;;;5054542;28;20395;-75
2021/08/20 02:26:56;;;;;;;38.67;12.30;;;;;;;;;;5054988;28;20496;-75
2021/08/20 02:29:22;;;;;;;36.30;11.52;;;;;;;;;;5054895;28;20025;-75
2021/08/20 02:31:47;;;;;;;40.92;11.23;;;;;;;;;;5054933;28;20075;-75
2021/08/20 02:34:12;;;;;;;33.78;11.52;;;;;;;;;;5054736;28;20029;-75
2021/08/20 02:36:37;;;;;;;33.97;11.27;;;;;;;;;;5054652;28;20051;-75
2021/08/20 02:39:03;;;;;;;37.38;11.82;;;;;;;;;;5054615;28;20029;-75
2021/08/20 02:41:29;;;;;;;40.13;11.43;;;;;;;;;;5054666;28;20466;-75
2021/08/20 02:43:54;;;;;;;35.40;12.15;;;;;;;;;;5054549;28;20078;-75
2021/08/20 02:46:20;;;;;;;31.38;11.23;;;;;;;;;;5054572;28;20036;-75
2021/08/20 02:48:45;;;;;;;35.17;11.75;;;;;;;;;;5054759;28;20106;-75
2021/08/20 02:51:11;;;;;;;29.77;10.75;;;;;;;;;;5054211;28;20029;-75
2021/08/20 02:53:36;;;;;;;29.63;10.82;;;;;;;;;;5054370;28;20401;-75
2021/08/20 02:56:01;;;;;;;30.63;10.15;;;;;;;;;;5053996;28;20041;-75
2021/08/20 02:58:27;;;;;;;47.58;11.75;;;;;;;;;;5054338;28;20025;-76
2021/08/20 03:00:52;;;;;;;37.55;11.75;;;;;;;;;;5053368;28;20408;-75
2021/08/20 03:03:17;;;;;;;46.42;11.13;;;;;;;;;;5054197;28;20483;-75
2021/08/20 03:05:42;;;;;;;36.47;10.35;;;;;;;;;;5054062;28;20025;-75
2021/08/20 03:08:08;;;;;;;50.05;11.98;;;;;;;;;;5054283;28;20075;-75
2021/08/20 03:10:33;;;;;;;48.53;11.38;;;;;;;;;;5053753;28;20464;-75
2021/08/20 03:12:58;;;;;;;38.85;11.27;;;;;;;;;;5053670;28;20028;-75
2021/08/20 03:15:24;;;;;;;33.58;9.52;;;;;;;;;;5053789;28;20084;-75
2021/08/20 03:17:49;;;;;;;37.95;10.45;;;;;;;;;;5053911;28;20037;-75
2021/08/20 03:20:14;;;;;;;28.55;9.82;;;;;;;;;;5053911;28;20021;-75
2021/08/20 03:22:39;;;;;;;42.40;11.60;;;;;;;;;;5053870;28;20124;-75
2021/08/20 03:25:05;;;;;;;38.58;11.10;;;;;;;;;;5053421;28;20539;-75
2021/08/20 03:27:30;;;;;;;38.40;10.82;;;;;;;;;;5053771;28;20028;-76
2021/08/20 03:29:56;;;;;;;48.58;11.73;;;;;;;;;;5052890;28;20088;-75
2021/08/20 03:32:21;;;;;;;45.00;11.15;;;;;;;;;;5053831;28;20073;-75
2021/08/20 03:34:46;;;;;;;46.95;10.93;;;;;;;;;;5053776;28;20036;-75
2021/08/20 03:37:11;;;;;;;52.95;11.80;;;;;;;;;;5053561;28;20032;-75
2021/08/20 03:39:37;;;;;;;35.30;9.82;;;;;;;;;;5053632;28;20029;-75
2021/08/20 03:42:02;;;;;;;42.00;10.40;;;;;;;;;;5053541;28;20021;-75
2021/08/20 03:44:27;;;;;;;42.63;11.10;;;;;;;;;;5053335;28;20056;-76
2021/08/20 03:46:53;;;;;;;42.60;11.27;;;;;;;;;;5053498;28;20432;-75
2021/08/20 03:49:18;;;;;;;42.10;10.38;;;;;;;;;;5053490;28;20025;-75
2021/08/20 03:51:43;;;;;;;58.30;10.95;;;;;;;;;;5053388;28;20388;-75
2021/08/20 03:54:10;;;;;;;33.85;9.10;;;;;;;;;;5053492;28;20039;-75
2021/08/20 03:56:36;;;;;;;34.97;9.93;;;;;;;;;;5053307;28;20103;-75
2021/08/20 03:59:01;;;;;;;45.85;10.75;;;;;;;;;;5053784;28;20108;-74
2021/08/20 04:01:26;;;;;;;31.85;9.48;;;;;;;;;;5053246;28;20035;-76
2021/08/20 04:03:51;;;;;;;29.17;8.77;;;;;;;;;;5053033;28;20028;-75
2021/08/20 04:06:17;;;;;;;39.05;9.45;;;;;;;;;;5053313;28;20094;-75
2021/08/20 04:08:42;;;;;;;30.30;9.82;;;;;;;;;;5053249;28;20033;-75
2021/08/20 04:11:11;;;;;;;38.03;11.00;;;;;;;;;;5053291;28;20017;-75
2021/08/20 04:13:37;;;;;;;39.10;10.45;;;;;;;;;;5053492;28;20037;-74
2021/08/20 04:16:02;;;;;;;34.88;9.65;;;;;;;;;;5053111;28;20538;-75
2021/08/20 04:18:27;;;;;;;42.15;10.73;;;;;;;;;;5035311;28;20033;-75
2021/08/20 04:20:52;;;;;;;42.65;9.93;;;;;;;;;;5052896;28;20114;-75
2021/08/20 04:23:18;;;;;;;50.10;10.35;;;;;;;;;;5053119;28;20028;-75
2021/08/20 04:25:43;;;;;;;38.15;9.98;;;;;;;;;;5053060;28;20087;-75
2021/08/20 04:28:09;;;;;;;46.72;10.10;;;;;;;;;;5052715;28;20033;-75
2021/08/20 04:30:34;;;;;;;40.72;10.18;;;;;;;;;;5052878;28;20052;-76
2021/08/20 04:32:59;;;;;;;37.30;9.48;;;;;;;;;;5053068;28;20505;-74
2021/08/20 04:35:26;;;;;;;43.22;10.50;;;;;;;;;;5053020;28;20465;-75
2021/08/20 04:37:51;;;;;;;35.65;10.18;;;;;;;;;;5052933;28;20036;-76
2021/08/20 04:40:16;;;;;;;41.13;10.85;;;;;;;;;;5052970;28;20027;-75
2021/08/20 04:42:41;;;;;;;49.63;10.68;;;;;;;;;;5055274;28;20027;-75
2021/08/20 04:45:07;;;;;;;36.20;9.20;;;;;;;;;;5056816;28;20038;-75
2021/08/20 04:47:32;;;;;;;39.70;9.05;;;;;;;;;;5056546;28;20099;-75
2021/08/20 04:49:58;;;;;;;36.13;8.68;;;;;;;;;;5056665;28;20090;-75
2021/08/20 04:52:23;;;;;;;38.42;9.20;;;;;;;;;;5056729;28;20055;-76
2021/08/20 04:54:49;;;;;;;34.25;9.43;;;;;;;;;;5056569;28;20067;-75
2021/08/20 04:57:14;;;;;;;40.97;8.90;;;;;;;;;;5056385;28;20104;-75
2021/08/20 04:59:39;;;;;;;46.40;10.45;;;;;;;;;;5056567;28;20124;-75
2021/08/20 05:02:05;;;;;;;36.88;9.57;;;;;;;;;;5056753;28;20013;-75
2021/08/20 05:04:32;;;;;;;34.13;9.10;;;;;;;;;;5056853;28;20040;-76
2021/08/20 05:06:58;;;;;;;47.65;10.23;;;;;;;;;;5056338;28;20109;-75
2021/08/20 05:09:23;;;;;;;52.60;10.23;;;;;;;;;;5056433;28;20151;-75
2021/08/20 05:11:48;;;;;;;30.58;8.40;;;;;;;;;;5056339;28;20037;-74
2021/08/20 05:14:14;;;;;;;36.83;9.23;;;;;;;;;;5056180;28;20041;-75
2021/08/20 05:16:39;;;;;;;33.63;10.13;;;;;;;;;;5056622;28;20017;-75
2021/08/20 05:19:04;;;;;;;43.30;10.35;;;;;;;;;;5056223;28;20094;-75
2021/08/20 05:21:29;;;;;;;39.75;9.27;;;;;;;;;;5056132;28;20086;-76
2021/08/20 05:23:55;;;;;;;41.10;10.38;;;;;;;;;;5056143;28;20462;-75
2021/08/20 05:26:20;;;;;;;36.20;9.60;;;;;;;;;;5056305;28;20033;-75
2021/08/20 05:28:45;;;;;;;31.83;9.07;;;;;;;;;;5056001;28;20124;-75
2021/08/20 05:31:10;;;;;;;28.80;9.35;;;;;;;;;;5055645;28;20049;-75
2021/08/20 05:33:36;;;;;;;38.83;9.70;;;;;;;;;;5056214;28;20048;-76
2021/08/20 05:36:01;;;;;;;31.95;9.52;;;;;;;;;;5055835;28;20131;-75
2021/08/20 05:38:26;;;;;;;35.05;9.52;;;;;;;;;;5055979;28;20017;-75
2021/08/20 05:40:52;;;;;;;36.65;9.80;;;;;;;;;;5055776;28;20068;-76
2021/08/20 05:43:17;;;;;;;33.70;8.40;;;;;;;;;;5055504;28;20029;-75
2021/08/20 05:45:42;;;;;;;30.17;8.93;;;;;;;;;;5055679;28;20018;-76
2021/08/20 05:48:08;;;;;;;38.17;9.48;;;;;;;;;;5055383;28;20029;-75
2021/08/20 05:50:36;;;;;;;39.90;9.65;;;;;;;;;;5055636;28;20209;-75
2021/08/20 05:53:01;;;;;;;35.50;8.82;;;;;;;;;;5054072;28;20472;-76
2021/08/20 05:55:30;;;;;;;29.65;8.65;;;;;;;;;;5055516;28;20037;-75
2021/08/20 05:57:55;;;;;;;28.80;7.32;;;;;;;;;;5055500;28;20112;-75
2021/08/20 06:00:21;;;;;;;24.42;7.70;;;;;;;;;;5055491;28;20130;-75
2021/08/20 06:02:46;;;;;;;29.00;8.15;;;;;;;;;;5055237;28;20032;-75
2021/08/20 06:05:11;;;;;;;29.23;7.88;;;;;;;;;;5055360;28;20036;-75
2021/08/20 06:07:37;;;;;;;34.72;8.00;;;;;;;;;;5054966;28;20469;-75
2021/08/20 06:10:03;;;;;;;28.15;7.72;;;;;;;;;;5055207;28;20108;-75
2021/08/20 06:12:29;;;;;;;28.02;7.53;;;;;;;;;;5055169;28;20120;-75
2021/08/20 06:14:54;;;;;;;26.20;7.50;;;;;;;;;;5054744;28;20127;-75
2021/08/20 06:17:20;;;;;;;20.88;7.30;;;;;;;;;;5055032;28;20115;-75
2021/08/20 06:19:45;;;;;;;22.38;6.63;;;;;;;;;;5055120;28;20037;-75
2021/08/20 06:22:10;;;;;;;21.67;6.40;;;;;;;;;;5054982;28;20057;-75
2021/08/20 06:24:35;;;;;;;21.35;6.80;;;;;;;;;;5054957;28;20082;-75
2021/08/20 06:27:01;;;;;;;19.42;6.07;;;;;;;;;;5055010;28;20469;-75
2021/08/20 06:29:26;;;;;;;25.90;7.03;;;;;;;;;;5037063;28;20445;-75
2021/08/20 06:31:51;;;;;;;23.85;6.68;;;;;;;;;;5054864;28;20469;-75
2021/08/20 06:34:17;;;;;;;19.85;6.32;;;;;;;;;;5054495;28;20033;-75
2021/08/20 06:36:43;;;;;;;21.23;6.50;;;;;;;;;;5054622;28;20052;-75
2021/08/20 06:39:08;;;;;;;20.40;6.28;;;;;;;;;;5054549;28;20064;-75
2021/08/20 06:41:34;;;;;;;13.45;4.85;;;;;;;;;;5054613;28;20477;-76
2021/08/20 06:43:59;;;;;;;19.45;6.68;;;;;;;;;;5054450;28;20025;-76
2021/08/20 06:46:24;;;;;;;22.92;6.80;;;;;;;;;;5054585;28;20021;-76
2021/08/20 06:48:49;;;;;;;22.85;6.55;;;;;;;;;;5054483;28;20492;-75
2021/08/20 06:51:15;;;;;;;15.23;5.55;;;;;;;;;;5054436;28;20100;-75
2021/08/20 06:53:41;;;;;;;21.92;6.50;;;;;;;;;;5053935;28;20037;-76
2021/08/20 06:56:06;;;;;;;17.52;6.05;;;;;;;;;;5036079;28;20049;-75
2021/08/20 06:58:32;;;;;;;11.75;4.82;;;;;;;;;;5053811;28;20618;-77
2021/08/20 07:00:57;;;;;;;12.52;5.32;;;;;;;;;;5053583;28;20033;-75
2021/08/20 07:03:22;;;;;;;13.38;5.18;;;;;;;;;;5053767;28;20036;-75
2021/08/20 07:05:48;;;;;;;13.70;5.88;;;;;;;;;;5053697;28;20067;-76
2021/08/20 07:08:13;;;;;;;12.23;5.18;;;;;;;;;;5054160;28;20039;-75
2021/08/20 07:10:38;;;;;;;12.25;5.55;;;;;;;;;;5053963;28;20528;-76
2021/08/20 07:13:04;;;;;;;14.23;5.40;;;;;;;;;;5053941;28;20021;-75
2021/08/20 07:15:29;;;;;;;14.02;5.20;;;;;;;;;;5053933;28;20090;-75
2021/08/20 07:17:54;;;;;;;10.35;4.22;;;;;;;;;;5053906;28;20029;-75
2021/08/20 07:20:19;;;;;;;11.68;4.13;;;;;;;;;;5053865;28;20017;-76
2021/08/20 07:22:45;;;;;;;12.35;4.57;;;;;;;;;;5053847;28;20025;-75
2021/08/20 07:25:10;;;;;;;9.50;3.70;;;;;;;;;;5051464;28;20044;-76
2021/08/20 07:27:35;;;;;;;6.47;3.45;;;;;;;;;;5052237;28;20053;-75
2021/08/20 07:30:01;;;;;;;7.45;3.60;;;;;;;;;;5053589;28;20036;-76
2021/08/20 07:32:26;;;;;;;8.50;3.50;;;;;;;;;;5032231;28;20144;-76
2021/08/20 07:34:51;;;;;;;8.02;3.78;;;;;;;;;;5052628;28;20461;-76
2021/08/20 07:37:17;;;;;;;7.63;3.60;;;;;;;;;;5053195;28;20033;-75
2021/08/20 07:39:42;;;;;;;6.68;3.90;;;;;;;;;;5052940;28;20154;-75
2021/08/20 07:42:07;;;;;;;7.07;4.70;;;;;;;;;;5053408;28;20442;-75
2021/08/20 07:44:33;;;;;;;9.93;5.25;;;;;;;;;;5053738;28;20040;-75
2021/08/20 07:46:59;;;;;;;6.05;4.00;;;;;;;;;;5053362;28;20477;-75
2021/08/20 07:49:24;;;;;;;4.72;2.78;;;;;;;;;;5053536;28;20017;-76
2021/08/20 07:51:49;;;;;;;146.93;12.20;;;;;;;;;;5053457;28;20389;-75
2021/08/20 07:54:15;;;;;;;5.00;2.83;;;;;;;;;;5053355;28;20180;-76
2021/08/20 07:56:40;;;;;;;6.60;2.78;;;;;;;;;;5053463;28;20052;-75
2021/08/20 07:59:05;;;;;;;4.38;2.80;;;;;;;;;;5053232;28;20369;-75
2021/08/20 08:01:31;;;;;;;75.90;69.40;;;;;;;;;;5043923;28;20396;-75
2021/08/20 08:03:58;;;;;;;4.75;2.85;;;;;;;;;;5046730;28;20021;-76
2021/08/20 08:06:24;;;;;;;8.30;3.45;;;;;;;;;;5048687;28;20037;-76
2021/08/20 08:08:50;;;;;;;7.55;4.18;;;;;;;;;;5050270;28;20040;-75
2021/08/20 08:11:15;;;;;;;8.50;3.90;;;;;;;;;;5050643;28;20021;-75
2021/08/20 08:13:40;;;;;;;10.63;4.03;;;;;;;;;;5050058;28;20025;-76
2021/08/20 08:16:06;;;;;;;9.07;3.88;;;;;;;;;;5050133;28;20067;-75
2021/08/20 08:18:31;;;;;;;6.97;4.20;;;;;;;;;;5054713;28;20020;-76
2021/08/20 08:20:56;;;;;;;7.43;3.92;;;;;;;;;;5054229;28;20445;-77
2021/08/20 08:23:21;;;;;;;9.13;4.43;;;;;;;;;;5054750;28;20441;-75
2021/08/20 08:25:47;;;;;;;10.70;4.30;;;;;;;;;;5053981;28;20096;-75
2021/08/20 08:28:13;;;;;;;7.75;3.83;;;;;;;;;;5054064;28;20096;-75
2021/08/20 08:30:39;;;;;;;7.65;3.97;;;;;;;;;;5053957;28;20049;-76
2021/08/20 08:33:05;;;;;;;7.13;4.15;;;;;;;;;;5053905;28;20029;-76
2021/08/20 08:35:30;;;;;;;10.38;4.50;;;;;;;;;;5054320;28;20052;-75
2021/08/20 08:38:06;;;;;;;13.10;4.80;;;;;;;;;;5053851;28;20058;-75
2021/08/20 08:40:32;;;;;;;10.18;4.90;;;;;;;;;;5054626;28;20473;-76
2021/08/20 08:42:58;;;;;;;10.43;5.07;;;;;;;;;;5053752;28;20044;-75
2021/08/20 08:45:24;;;;;;;9.45;4.43;;;;;;;;;;5053845;28;20025;-75
2021/08/20 08:47:49;;;;;;;11.75;4.45;;;;;;;;;;5054034;28;20108;-76
2021/08/20 08:50:15;;;;;;;10.18;4.45;;;;;;;;;;5053699;28;20040;-76
2021/08/20 08:52:40;;;;;;;10.10;3.78;;;;;;;;;;5054129;28;20025;-76
2021/08/20 08:55:07;;;;;;;7.60;3.88;;;;;;;;;;5053279;28;20053;-76
2021/08/20 08:57:32;;;;;;;7.35;3.80;;;;;;;;;;5053129;28;20477;-75
2021/08/20 08:59:58;;;;;;;7.03;3.92;;;;;;;;;;5053629;28;20024;-75
2021/08/20 09:02:24;;;;;;;9.40;3.00;;;;;;;;;;5053137;28;20025;-76
2021/08/20 09:04:59;;;;;;;7.38;2.90;;;;;;;;;;5035761;28;20067;-76
2021/08/20 09:07:25;;;;;;;10.88;3.08;;;;;;;;;;5053025;28;20029;-76
2021/08/20 09:10:09;;;;;;;9.48;3.53;;;;;;;;;;5053505;28;20095;-78
2021/08/20 09:12:34;;;;;;;11.38;3.08;;;;;;;;;;5053149;28;20036;-76
2021/08/20 09:15:00;;;;;;;10.10;2.97;;;;;;;;;;5052851;28;20045;-76
2021/08/20 09:17:29;;;;;;;13.77;4.28;;;;;;;;;;5052532;28;20021;-76
2021/08/20 09:20:12;;;;;;;12.45;4.10;;;;;;;;;;5053517;28;20472;-76
2021/08/20 09:22:37;;;;;;;7.38;3.03;;;;;;;;;;5053019;28;20037;-76
2021/08/20 09:25:02;;;;;;;10.45;3.28;;;;;;;;;;5053144;28;20078;-76
2021/08/20 09:27:29;;;;;;;9.18;3.45;;;;;;;;;;5053176;28;20082;-75
2021/08/20 09:29:55;;;;;;;7.30;2.47;;;;;;;;;;5053773;28;20021;-76
2021/08/20 09:32:21;;;;;;;9.38;3.38;;;;;;;;;;5049927;28;20473;-76
2021/08/20 09:34:54;;;;;;;6.15;2.13;;;;;;;;;;5052346;28;20036;-76
2021/08/20 09:37:20;;;;;;;10.30;3.08;;;;;;;;;;5032367;28;20057;-75
2021/08/20 09:39:46;;;;;;;7.90;2.80;;;;;;;;;;5032890;28;20025;-76
2021/08/20 09:42:17;;;;;;;7.50;2.47;;;;;;;;;;5031975;28;20037;-76
2021/08/20 09:44:42;;;;;;;8.35;2.70;;;;;;;;;;5032489;28;20029;-75
2021/08/20 09:47:08;;;;;;;5.63;2.15;;;;;;;;;;5032483;28;20040;-78
2021/08/20 09:49:54;;;;;;;7.03;2.50;;;;;;;;;;5032769;28;20258;-77
2021/08/20 09:52:29;;;;;;;6.45;2.35;;;;;;;;;;5031480;28;20469;-76
2021/08/20 09:54:54;;;;;;;;;;;;;;;;;;5032417;28;20041;-75
2021/08/20 09:57:23;;;;;;;9.23;2.07;;;;;;;;;;5014477;28;19909;-76
2021/08/20 09:59:49;;;;;;;6.65;2.22;;;;;;;;;;5032555;28;20033;-75
2021/08/20 10:02:18;;;;;;;12.45;2.42;;;;;;;;;;5040022;28;20031;-76
2021/08/20 10:04:43;;;;;;;8.18;1.95;;;;;;;;;;5052809;28;20106;-75
2021/08/20 10:07:09;;;;;;;7.93;2.60;;;;;;;;;;5051716;28;20488;-76
2021/08/20 10:09:36;;;;;;;7.15;2.75;;;;;;;;;;5051273;28;20354;-75
2021/08/20 10:12:02;;;;;;;6.82;2.20;;;;;;;;;;5051969;28;20147;-75
2021/08/20 10:14:29;;;;;;;5.10;2.70;;;;;;;;;;5050743;28;20064;-76
2021/08/20 10:16:54;;;;;;;10.38;2.92;;;;;;;;;;5050864;28;20025;-76
2021/08/20 10:19:20;;;;;;;5.65;1.80;;;;;;;;;;5048072;28;20028;-76
2021/08/20 10:21:45;;;;;;;5.45;2.10;;;;;;;;;;5050776;28;20021;-76
2021/08/20 10:24:12;;;;;;;2.58;1.70;;;;;;;;;;5050626;28;20013;-75
2021/08/20 10:26:38;;;;;;;4.82;1.70;;;;;;;;;;5050164;28;20482;-76
2021/08/20 10:29:04;;;;;;;6.35;2.00;;;;;;;;;;5050653;28;20037;-76
2021/08/20 10:31:30;;;;;;;6.80;1.73;;;;;;;;;;5051080;28;20037;-76
2021/08/20 10:33:55;;;;;;;5.78;1.58;;;;;;;;;;5051309;28;20104;-76
2021/08/20 10:36:36;;;;;;;2.70;1.35;;;;;;;;;;5050743;28;20403;-77
2021/08/20 10:39:02;;;;;;;6.78;1.65;;;;;;;;;;5050229;28;20025;-75
2021/08/20 10:41:28;;;;;;;2.95;1.30;;;;;;;;;;5051423;28;20121;-75
2021/08/20 10:43:54;;;;;;;3.30;1.35;;;;;;;;;;5050990;28;20025;-76
2021/08/20 10:46:36;;;;;;;3.90;1.35;;;;;;;;;;5051074;28;20024;-76
2021/08/20 10:49:10;;;;;;;5.97;1.00;;;;;;;;;;5050632;28;20139;-75
2021/08/20 10:51:48;;;;;;;5.15;1.13;;;;;;;;;;5051399;28;20025;-76
2021/08/20 10:54:13;;;;;;;3.35;1.10;;;;;;;;;;5050107;28;20063;-76
2021/08/20 10:56:38;;;;;;;4.43;1.40;;;;;;;;;;5051129;28;20040;-77
2021/08/20 10:59:04;;;;;;;4.38;1.38;;;;;;;;;;5049515;28;20075;-75
2021/08/20 11:01:29;;;;;;;2.63;1.00;;;;;;;;;;5050317;28;20017;-76
2021/08/20 11:03:54;;;;;;;3.78;0.98;;;;;;;;;;5050514;28;20036;-76
2021/08/20 11:06:38;;;;;;;3.75;1.70;;;;;;;;;;5050549;28;20039;-76
2021/08/20 11:09:22;;;;;;;2.40;1.20;;;;;;;;;;5049703;28;20029;-76
2021/08/20 11:11:50;;;;;;;3.03;1.38;;;;;;;;;;5050781;28;20025;-76
2021/08/20 11:14:21;;;;;;;1.85;1.00;;;;;;;;;;5050710;28;20432;-76
2021/08/20 11:16:47;;;;;;;2.60;1.30;;;;;;;;;;5050245;28;20039;-76
2021/08/20 11:19:32;;;;;;;7.05;1.75;;;;;;;;;;5049307;28;20115;-75
2021/08/20 11:22:11;;;;;;;5.13;1.50;;;;;;;;;;5049800;28;20104;-76
2021/08/20 11:24:36;;;;;;;2.45;1.00;;;;;;;;;;5050685;28;20021;-76
2021/08/20 11:27:18;;;;;;;4.80;1.60;;;;;;;;;;5050505;28;20023;-75
2021/08/20 11:29:43;;;;;;;3.85;1.65;;;;;;;;;;5050012;28;20057;-76
2021/08/20 11:32:08;;;;;;;3.70;1.13;;;;;;;;;;5049261;28;20084;-76
2021/08/20 11:34:34;;;;;;;5.15;1.80;;;;;;;;;;5049766;28;20144;-75
2021/08/20 11:37:00;;;;;;;3.25;1.60;;;;;;;;;;5032578;28;20036;-75
2021/08/20 11:39:25;;;;;;;5.30;1.40;;;;;;;;;;5049825;28;20021;-76
2021/08/20 11:41:55;;;;;;;4.40;1.58;;;;;;;;;;5050031;28;20400;-76
2021/08/20 11:44:24;;;;;;;4.35;1.67;;;;;;;;;;5049649;28;20488;-76
2021/08/20 11:46:50;;;;;;;3.92;1.75;;;;;;;;;;5049631;28;20045;-76
2021/08/20 11:49:25;;;;;;;4.35;1.42;;;;;;;;;;5049640;28;20060;-75
2021/08/20 11:51:51;;;;;;;2.58;1.20;;;;;;;;;;5048626;28;20059;-76
2021/08/20 11:54:16;;;;;;;2.35;1.15;;;;;;;;;;5049619;28;20497;-75
2021/08/20 11:56:49;;;;;;;2.40;1.25;;;;;;;;;;5049489;28;20104;-76
2021/08/20 11:59:15;;;;;;;1.95;1.02;;;;;;;;;;5031362;28;20437;-76
2021/08/20 12:01:40;;;;;;;3.42;1.30;;;;;;;;;;5050491;28;20179;-77
2021/08/20 12:04:07;;;;;;;3.15;1.40;;;;;;;;;;5049430;28;20025;-75
2021/08/20 12:06:33;;;;;;;2.70;1.10;;;;;;;;;;5050118;28;20029;-75
2021/08/20 12:09:08;;;;;;;3.78;1.20;;;;;;;;;;5049464;28;20112;-76
2021/08/20 12:11:33;;;;;;;3.30;1.13;;;;;;;;;;5049650;28;20400;-77
2021/08/20 12:13:59;;;;;;;2.70;1.40;;;;;;;;;;5049953;28;20036;-76
2021/08/20 12:16:33;;;;;;;2.42;1.35;;;;;;;;;;5048944;28;20037;-75
2021/08/20 12:19:08;;;;;;;4.10;1.48;;;;;;;;;;5031095;28;20081;-76
2021/08/20 12:21:34;;;;;;;2.65;1.17;;;;;;;;;;5049464;28;20036;-76
2021/08/20 12:24:00;;;;;;;3.95;1.15;;;;;;;;;;5049317;28;20032;-75
2021/08/20 12:26:26;;;;;;;3.83;1.60;;;;;;;;;;5049767;28;20116;-77
2021/08/20 12:28:51;;;;;;;3.80;1.27;;;;;;;;;;5049058;28;20109;-76
2021/08/20 12:31:20;;;;;;;4.18;1.25;;;;;;;;;;5048809;28;20486;-76
2021/08/20 12:33:58;;;;;;;3.80;1.63;;;;;;;;;;5048698;28;20424;-75
2021/08/20 12:36:24;;;;;;;3.72;1.27;;;;;;;;;;5050163;28;20036;-77
2021/08/20 12:39:05;;;;;;;4.45;1.42;;;;;;;;;;5049152;28;20393;-76
2021/08/20 12:41:30;;;;;;;3.33;1.23;;;;;;;;;;5049631;28;20047;-79
2021/08/20 12:43:56;;;;;;;1.95;0.93;;;;;;;;;;5049913;28;20143;-76
2021/08/20 12:46:32;;;;;;;4.18;1.50;;;;;;;;;;5049416;28;21002;-76
2021/08/20 12:48:59;;;;;;;2.67;1.20;;;;;;;;;;5049629;28;20031;-77
2021/08/20 12:51:24;;;;;;;3.38;1.10;;;;;;;;;;5049423;28;20582;-76
2021/08/20 12:54:00;;;;;;;3.22;1.30;;;;;;;;;;5049108;28;20489;-75
2021/08/20 12:56:36;;;;;;;3.63;1.27;;;;;;;;;;5049206;28;20037;-77
2021/08/20 12:59:02;;;;;;;3.67;1.55;;;;;;;;;;5048646;28;20029;-78
2021/08/20 13:01:27;;;;;;;2.53;1.33;;;;;;;;;;5048841;28;20044;-76
2021/08/20 13:03:52;;;;;;;3.47;1.42;;;;;;;;;;5051731;28;20029;-76
2021/08/20 13:06:18;;;;;;;3.60;1.48;;;;;;;;;;5052641;28;20039;-76
2021/08/20 13:08:43;;;;;;;5.55;1.35;;;;;;;;;;5053853;28;20034;-79
2021/08/20 13:11:10;;;;;;;3.53;1.20;;;;;;;;;;5052490;28;20068;-76
2021/08/20 13:13:35;;;;;;;4.82;1.50;;;;;;;;;;5052770;28;20025;-76
2021/08/20 13:16:00;;;;;;;4.40;1.30;;;;;;;;;;5052724;28;20082;-75
2021/08/20 13:18:26;;;;;;;3.85;1.27;;;;;;;;;;5052579;28;20059;-76
2021/08/20 13:20:52;;;;;;;5.18;1.27;;;;;;;;;;5052516;28;20468;-77
2021/08/20 13:23:18;;;;;;;6.55;2.00;;;;;;;;;;5052871;28;20032;-77
2021/08/20 13:25:43;;;;;;;3.67;2.05;;;;;;;;;;5052798;28;20037;-75
2021/08/20 13:28:09;;;;;;;4.18;1.75;;;;;;;;;;5052395;28;20456;-76
2021/08/20 13:30:38;;;;;;;5.85;1.73;;;;;;;;;;5052343;28;20045;-75
2021/08/20 13:33:04;;;;;;;4.68;2.05;;;;;;;;;;5052201;28;20043;-76
2021/08/20 13:35:29;;;;;;;5.93;2.15;;;;;;;;;;5052093;28;20037;-75
2021/08/20 13:37:55;;;;;;;4.03;1.88;;;;;;;;;;5053290;28;20132;-76
2021/08/20 13:40:20;;;;;;;6.05;2.22;;;;;;;;;;5052071;28;20469;-75
2021/08/20 13:42:46;;;;;;;9.05;2.35;;;;;;;;;;5052392;28;20024;-76
2021/08/20 13:45:11;;;;;;;3.60;2.17;;;;;;;;;;5051386;28;20060;-76
2021/08/20 13:47:37;;;;;;;8.63;2.58;;;;;;;;;;5052017;28;20036;-75
2021/08/20 13:50:04;;;;;;;5.25;2.28;;;;;;;;;;5052291;28;20099;-76
2021/08/20 13:52:29;;;;;;;6.82;2.47;;;;;;;;;;5051981;28;20025;-75
2021/08/20 13:54:54;;;;;;;5.60;2.28;;;;;;;;;;5051521;28;20098;-76
2021/08/20 13:57:20;;;;;;;6.25;2.20;;;;;;;;;;5052213;28;20025;-76
2021/08/20 13:59:45;;;;;;;7.03;2.10;;;;;;;;;;5051584;28;20056;-76
2021/08/20 14:02:10;;;;;;;4.70;2.20;;;;;;;;;;5051653;28;20870;-78
2021/08/20 14:04:36;;;;;;;4.60;2.10;;;;;;;;;;5052471;28;20087;-76
2021/08/20 14:07:01;;;;;;;8.25;2.95;;;;;;;;;;5051606;28;20027;-76
2021/08/20 14:09:26;;;;;;;7.78;2.53;;;;;;;;;;5051939;28;20396;-75
2021/08/20 14:11:51;;;;;;;8.63;3.03;;;;;;;;;;5051549;28;20449;-75
2021/08/20 14:14:17;;;;;;;9.57;3.17;;;;;;;;;;5050089;28;20029;-76
2021/08/20 14:16:42;;;;;;;7.60;2.95;;;;;;;;;;5052131;28;20040;-76
2021/08/20 14:19:07;;;;;;;5.88;2.92;;;;;;;;;;5051442;28;20129;-75
2021/08/20 14:21:34;;;;;;;11.60;3.03;;;;;;;;;;5051142;28;20063;-77
2021/08/20 14:23:59;;;;;;;9.63;3.22;;;;;;;;;;5051103;28;20489;-76
2021/08/20 14:26:24;;;;;;;12.85;4.28;;;;;;;;;;5051170;28;20151;-76
2021/08/20 14:28:49;;;;;;;10.00;3.00;;;;;;;;;;5052137;28;20124;-76